Quick Links (Output Below):   Max & Min Temps   /   Climate Reports   /   Zone Forecasts
River Forecasts   /   Forestry Forecasts   /   Aviation Forecasts   /   Radars   /   Features

Terminal Aerodrome Forecast (Harrison)

Pick a Site:
Arkadelphia | El Dorado | Fayetteville | Fort Smith | Harrison | Highfill | Hot Springs | Jonesboro
Little Rock | Monticello | Mountain Home | Pine Bluff | Texarkana

KHRO 251138Z 2512/2612 16012KT P6SM SCT025 BKN040
      TEMPO 2512/2516 -DZ BKN015 OVC025
     FM251600 16008KT P6SM BKN012 BKN025
     FM260600 14011KT P6SM BKN008 OVC015=

 Latest METARs (Observations) 
How to Decode METARs
12Z KHRO 251153Z AUTO 16011KT 10SM BKN024 OVC070 10/04 A3013 RMK AO2
         SLP204 T01000044 10106 20083 53003
11Z KHRO 251053Z AUTO 15014G22KT 10SM BKN022 BKN070 OVC080 11/04 A3012
         RMK AO2 SLP197 T01060039
10Z KHRO 250953Z AUTO 16014KT 10SM BKN023 OVC075 11/03 A3013 RMK AO2
         SLP199 T01060028
09Z KHRO 250853Z AUTO 16016G21KT 10SM OVC065 10/02 A3013 RMK AO2
         SLP199 T01000017 56009
08Z KHRO 250753Z AUTO 15015KT 10SM OVC065 10/01 A3013 RMK AO2 SLP200
07Z KHRO 250653Z AUTO 14013KT 10SM OVC055 09/00 A3013 RMK AO2 SLP201
06Z KHRO 250553Z AUTO 13011KT 10SM OVC046 08/M01 A3015 RMK AO2 SLP208
         T00831006 10100 20067 401610039 50003
05Z KHRO 250453Z AUTO 13010KT 10SM SCT070 SCT100 07/M01 A3016 RMK AO2
         SLP212 T00721006
04Z KHRO 250353Z AUTO 14009KT 10SM CLR 07/M01 A3015 RMK AO2 SLP209
03Z KHRO 250253Z AUTO 14010KT 10SM CLR 08/M01 A3014 RMK AO2 SLP209
         T00831011 51006
***** Today's Observations (Above) *****

Back to Main Page

USA.gov is the U.S. government's official web portal to all federal, state and local government web resources and services.